Time;durP1;ratioP1;P1;durP2;ratioP2;P2;SDS_P1;SDS_P2;PMS_P1;PMS_P2;Temp;Humidity;BMP_temperature;BMP_pressure;BME280_temperature;BME280_humidity;BME280_pressure;Samples;Min_cycle;Max_cycle;Signal;HPM_P1;HPM_P2
2021/04/16 00:00:51;;;;;;;2.73;1.70;;;3.50;88.20;;;;;;4345263;33;20149;-56
2021/04/16 00:03:20;;;;;;;4.87;1.90;;;3.40;88.50;;;;;;4344517;33;20521;-56
2021/04/16 00:05:47;;;;;;;3.40;2.40;;;3.50;90.10;;;;;;4344806;33;20195;-58
2021/04/16 00:08:16;;;;;;;2.60;1.83;;;3.40;90.10;;;;;;4343975;33;20191;-57
2021/04/16 00:10:45;;;;;;;3.20;1.97;;;3.40;90.00;;;;;;4344971;33;20299;-55
2021/04/16 00:13:14;;;;;;;2.90;2.00;;;3.50;90.00;;;;;;4344130;33;20160;-55
2021/04/16 00:15:44;;;;;;;4.13;2.00;;;3.30;90.00;;;;;;4342623;33;20137;-58
2021/04/16 00:18:13;;;;;;;6.40;2.53;;;3.30;90.10;;;;;;4344937;33;20188;-57
2021/04/16 00:20:42;;;;;;;4.00;2.30;;;3.20;90.20;;;;;;4345262;33;20164;-53
2021/04/16 00:23:08;;;;;;;2.93;2.50;;;3.20;90.40;;;;;;4346506;33;20189;-56
2021/04/16 00:25:35;;;;;;;3.50;2.33;;;3.20;90.40;;;;;;4346563;33;20164;-54
2021/04/16 00:28:03;;;;;;;3.80;1.87;;;3.20;90.70;;;;;;4346120;33;20165;-57
2021/04/16 00:30:33;;;;;;;3.63;2.33;;;3.10;90.70;;;;;;4343104;33;20215;-55
2021/04/16 00:33:04;;;;;;;3.63;2.00;;;3.10;90.80;;;;;;4347575;33;20145;-55
2021/04/16 00:35:30;;;;;;;2.77;2.10;;;3.00;91.30;;;;;;4346764;33;20236;-54
2021/04/16 00:37:58;;;;;;;5.37;2.40;;;3.00;91.00;;;;;;4348205;33;20526;-56
2021/04/16 00:40:27;;;;;;;4.83;2.37;;;3.00;91.10;;;;;;4347542;33;20160;-54
2021/04/16 00:42:55;;;;;;;2.60;2.03;;;3.00;91.40;;;;;;4346736;33;20561;-56
2021/04/16 00:45:23;;;;;;;6.57;2.60;;;3.00;91.20;;;;;;4347239;33;20199;-55
2021/04/16 00:47:50;;;;;;;4.27;2.70;;;2.90;91.40;;;;;;4347247;33;20219;-55
2021/04/16 00:50:21;;;;;;;2.70;1.90;;;2.90;91.40;;;;;;4348633;33;20261;-56
2021/04/16 00:52:48;;;;;;;4.13;2.17;;;2.90;91.60;;;;;;4347579;32;20582;-57
2021/04/16 00:55:16;;;;;;;3.40;2.30;;;2.80;91.80;;;;;;4347737;33;20160;-55
2021/04/16 00:57:45;;;;;;;3.23;2.60;;;2.80;92.00;;;;;;4346853;33;20145;-56
2021/04/16 01:00:14;;;;;;;2.83;2.17;;;2.80;91.90;;;;;;4347283;33;20153;-56
2021/04/16 01:02:43;;;;;;;2.93;2.30;;;2.80;92.10;;;;;;4346452;33;20291;-55
2021/04/16 01:05:10;;;;;;;4.03;2.13;;;2.70;92.20;;;;;;4341516;33;20145;-56
2021/04/16 01:07:37;;;;;;;4.80;2.60;;;2.70;92.40;;;;;;4346947;32;20172;-57
2021/04/16 01:10:06;;;;;;;4.03;2.67;;;2.70;92.40;;;;;;4346669;33;20215;-55
2021/04/16 01:12:35;;;;;;;3.07;2.20;;;2.70;92.60;;;;;;4347174;33;20157;-57
2021/04/16 01:15:15;;;;;;;3.73;2.47;;;2.70;92.70;;;;;;4348866;33;20145;-55
2021/04/16 01:17:42;;;;;;;2.53;2.17;;;2.60;93.10;;;;;;4343183;33;20585;-55
2021/04/16 01:20:14;;;;;;;3.07;2.20;;;2.60;93.20;;;;;;4346159;33;20149;-57
2021/04/16 01:22:49;;;;;;;7.17;2.87;;;2.60;92.80;;;;;;4332676;33;20171;-56
2021/04/16 01:25:18;;;;;;;3.97;2.70;;;2.50;93.00;;;;;;4345490;33;20140;-56
2021/04/16 01:27:45;;;;;;;4.70;2.47;;;2.50;93.20;;;;;;4345882;33;20188;-57
2021/04/16 01:30:15;;;;;;;4.83;2.67;;;2.50;93.50;;;;;;4347140;33;20221;-54
2021/04/16 01:32:42;;;;;;;5.13;2.87;;;2.50;93.50;;;;;;4347242;33;20172;-53
2021/04/16 01:35:11;;;;;;;5.83;3.23;;;2.40;93.50;;;;;;4343642;32;20514;-57
2021/04/16 01:37:38;;;;;;;4.00;2.87;;;2.40;93.80;;;;;;4346531;33;20232;-55
2021/04/16 01:40:06;;;;;;;4.07;2.60;;;2.40;93.70;;;;;;4346794;33;20211;-54
2021/04/16 01:42:33;;;;;;;3.43;2.20;;;2.40;93.90;;;;;;4346964;33;20161;-56
2021/04/16 01:45:00;;;;;;;5.07;2.63;;;2.40;94.00;;;;;;4343053;33;20145;-58
2021/04/16 01:47:26;;;;;;;3.30;2.43;;;2.30;94.00;;;;;;4347126;33;20176;-55
2021/04/16 01:49:54;;;;;;;4.83;2.70;;;2.30;94.20;;;;;;4332450;33;20164;-56
2021/04/16 01:52:23;;;;;;;4.60;2.53;;;2.30;94.30;;;;;;4332771;33;20208;-57
2021/04/16 01:54:51;;;;;;;4.07;2.20;;;2.40;94.80;;;;;;4344399;33;20302;-53
2021/04/16 01:57:19;;;;;;;4.27;2.77;;;2.30;94.40;;;;;;4344156;32;20142;-57
2021/04/16 01:59:48;;;;;;;5.27;3.00;;;2.30;94.60;;;;;;4345108;33;21037;-56
2021/04/16 02:02:18;;;;;;;6.03;2.80;;;2.30;95.00;;;;;;4348091;33;20628;-54
2021/04/16 02:04:46;;;;;;;4.07;3.20;;;2.30;94.80;;;;;;4345432;33;20169;-55
2021/04/16 02:07:14;;;;;;;4.43;2.60;;;2.30;94.80;;;;;;4347411;33;20168;-55
2021/04/16 02:09:41;;;;;;;4.07;2.50;;;2.30;94.90;;;;;;4344393;33;20173;-57
2021/04/16 02:12:10;;;;;;;4.53;3.17;;;2.20;94.80;;;;;;4346751;32;20224;-54
2021/04/16 02:14:36;;;;;;;4.07;2.60;;;2.20;95.10;;;;;;4344670;33;20149;-55
2021/04/16 02:17:07;;;;;;;3.33;2.43;;;2.20;95.40;;;;;;4345501;33;20173;-56
2021/04/16 02:19:34;;;;;;;4.97;3.10;;;2.20;95.30;;;;;;4346189;33;20668;-56
2021/04/16 02:22:01;;;;;;;4.37;3.17;;;2.20;95.50;;;;;;4345506;33;20268;-55
2021/04/16 02:24:27;;;;;;;3.00;2.20;;;2.20;95.60;;;;;;4346780;33;20232;-58
2021/04/16 02:26:55;;;;;;;2.80;2.27;;;2.20;95.30;;;;;;4342368;33;20699;-58
2021/04/16 02:29:22;;;;;;;5.53;3.20;;;2.20;95.50;;;;;;4346800;33;20153;-58
2021/04/16 02:31:49;;;;;;;3.87;2.70;;;2.20;95.70;;;;;;4342098;33;20494;-55
2021/04/16 02:34:20;;;;;;;5.50;3.30;;;2.20;95.70;;;;;;4346657;33;20187;-55
2021/04/16 02:36:47;;;;;;;3.23;2.50;;;2.20;95.80;;;;;;4344477;33;20168;-56
2021/04/16 02:39:13;;;;;;;6.67;3.13;;;2.10;95.90;;;;;;4346174;33;20240;-56
2021/04/16 02:41:40;;;;;;;4.40;3.10;;;2.20;95.70;;;;;;4345715;33;20224;-57
2021/04/16 02:44:07;;;;;;;4.57;3.20;;;2.10;95.90;;;;;;4347357;33;20291;-55
2021/04/16 02:46:36;;;;;;;4.97;3.20;;;2.10;96.00;;;;;;4337808;33;20259;-56
2021/04/16 02:49:03;;;;;;;6.57;3.90;;;2.10;96.10;;;;;;4345374;33;20256;-56
2021/04/16 02:51:31;;;;;;;5.73;3.23;;;2.10;96.30;;;;;;4345693;33;20632;-57
2021/04/16 02:53:57;;;;;;;6.37;3.47;;;2.10;96.20;;;;;;4347733;33;20236;-56
2021/04/16 02:56:24;;;;;;;6.50;3.93;;;2.00;96.40;;;;;;4344262;33;20240;-54
2021/04/16 02:58:51;;;;;;;4.73;3.60;;;2.00;96.70;;;;;;4346624;33;20153;-59
2021/04/16 03:01:18;;;;;;;5.17;3.50;;;2.00;96.40;;;;;;4344676;33;20219;-57
2021/04/16 03:03:44;;;;;;;5.33;3.27;;;2.00;96.60;;;;;;4344879;33;20192;-58
2021/04/16 03:06:11;;;;;;;4.63;3.43;;;2.00;96.50;;;;;;4343896;33;20268;-55
2021/04/16 03:08:38;;;;;;;4.27;3.37;;;2.00;96.50;;;;;;4343763;33;20532;-55
2021/04/16 03:11:06;;;;;;;7.77;4.03;;;2.00;96.50;;;;;;4345611;33;20232;-56
2021/04/16 03:13:32;;;;;;;6.57;4.20;;;2.00;96.70;;;;;;4345891;33;20161;-58
2021/04/16 03:15:59;;;;;;;5.70;3.37;;;2.00;96.80;;;;;;4345454;32;20535;-57
2021/04/16 03:18:26;;;;;;;4.20;3.30;;;2.00;96.90;;;;;;4334211;33;20207;-56
2021/04/16 03:20:52;;;;;;;4.87;3.57;;;2.00;96.80;;;;;;4345115;33;20187;-54
2021/04/16 03:23:19;;;;;;;5.77;3.47;;;1.90;96.80;;;;;;4346251;33;20167;-56
2021/04/16 03:25:46;;;;;;;4.43;3.53;;;1.90;97.10;;;;;;4335786;33;20220;-54
2021/04/16 03:28:16;;;;;;;3.90;2.90;;;1.90;97.00;;;;;;4343891;32;20236;-56
2021/04/16 03:30:42;;;;;;;6.63;3.63;;;2.00;97.00;;;;;;4345020;33;20223;-52
2021/04/16 03:33:09;;;;;;;7.50;3.77;;;2.00;97.20;;;;;;4345379;33;20153;-55
2021/04/16 03:35:35;;;;;;;4.73;3.60;;;2.00;97.30;;;;;;4343737;33;20165;-56
2021/04/16 03:38:02;;;;;;;5.30;3.47;;;2.00;97.40;;;;;;4336544;33;20185;-55
2021/04/16 03:40:32;;;;;;;5.50;3.30;;;1.90;97.20;;;;;;4346181;33;20580;-54
2021/04/16 03:42:59;;;;;;;6.37;4.60;;;2.00;97.20;;;;;;4347131;33;20149;-53
2021/04/16 03:45:28;;;;;;;10.07;5.73;;;2.00;97.40;;;;;;4344541;33;20200;-56
2021/04/16 03:47:55;;;;;;;7.10;5.43;;;1.90;97.60;;;;;;4342845;33;20235;-55
2021/04/16 03:50:25;;;;;;;11.37;5.43;;;1.90;97.70;;;;;;4345813;33;20177;-58
2021/04/16 03:52:51;;;;;;;7.13;4.87;;;1.90;97.80;;;;;;4344895;33;20166;-56
2021/04/16 03:55:20;;;;;;;10.07;5.27;;;1.90;97.80;;;;;;4345524;33;20480;-58
2021/04/16 03:57:46;;;;;;;4.93;4.13;;;1.90;97.80;;;;;;4342157;33;20184;-57
2021/04/16 04:00:18;;;;;;;5.60;4.03;;;1.90;97.70;;;;;;4345355;33;20153;-58
2021/04/16 04:02:45;;;;;;;7.17;4.13;;;1.90;97.90;;;;;;4345623;33;20161;-56
2021/04/16 04:05:12;;;;;;;5.10;3.90;;;1.90;97.90;;;;;;4345466;33;20553;-56
2021/04/16 04:07:38;;;;;;;5.70;4.23;;;1.90;97.90;;;;;;4343786;33;20169;-57
2021/04/16 04:10:06;;;;;;;4.70;4.00;;;1.90;98.00;;;;;;4344358;33;20200;-57
2021/04/16 04:12:32;;;;;;;5.83;4.13;;;1.80;98.10;;;;;;4344636;33;20232;-57
2021/04/16 04:14:58;;;;;;;5.27;3.57;;;1.80;98.20;;;;;;4346119;33;20256;-57
2021/04/16 04:17:28;;;;;;;5.97;3.77;;;1.80;98.10;;;;;;4344146;33;20227;-53
2021/04/16 04:19:54;;;;;;;6.13;4.40;;;1.80;98.10;;;;;;4344148;33;20289;-56
2021/04/16 04:22:20;;;;;;;6.20;4.10;;;1.80;98.20;;;;;;4345397;33;20218;-55
2021/04/16 04:24:47;;;;;;;6.10;3.73;;;1.90;98.20;;;;;;4336825;33;20283;-55
2021/04/16 04:27:14;;;;;;;5.53;4.23;;;1.80;98.20;;;;;;4344164;33;20590;-55
2021/04/16 04:29:41;;;;;;;8.43;4.03;;;1.80;98.30;;;;;;4338447;33;20173;-58
2021/04/16 04:32:09;;;;;;;6.87;3.93;;;1.80;98.40;;;;;;4345005;33;20145;-58
2021/04/16 04:34:39;;;;;;;5.17;3.70;;;1.80;98.40;;;;;;4345055;33;20641;-55
2021/04/16 04:37:09;;;;;;;5.93;3.77;;;1.80;98.50;;;;;;4345164;33;20149;-56
2021/04/16 04:39:37;;;;;;;6.77;3.77;;;1.80;98.40;;;;;;4343815;33;20184;-58
2021/04/16 04:42:05;;;;;;;9.00;4.13;;;1.80;98.50;;;;;;4346654;33;20160;-57
2021/04/16 04:44:33;;;;;;;6.00;3.30;;;1.80;98.60;;;;;;4345362;33;20217;-58
2021/04/16 04:47:05;;;;;;;6.80;4.47;;;1.80;98.90;;;;;;4347792;33;20661;-55
2021/04/16 04:49:33;;;;;;;5.53;3.77;;;1.80;99.00;;;;;;4342945;33;20558;-57
2021/04/16 04:52:18;;;;;;;6.77;3.43;;;1.90;98.90;;;;;;4346961;33;20157;-55
2021/04/16 04:54:46;;;;;;;7.00;4.03;;;1.90;98.90;;;;;;4342390;33;20259;-59
2021/04/16 04:57:12;;;;;;;6.40;4.27;;;1.90;98.80;;;;;;4346128;33;20224;-56
2021/04/16 04:59:39;;;;;;;6.83;3.60;;;1.90;98.60;;;;;;4342448;33;20220;-56
2021/04/16 05:02:05;;;;;;;8.20;3.67;;;2.00;99.00;;;;;;4351126;33;20187;-56
2021/04/16 05:04:31;;;;;;;5.80;3.93;;;1.90;99.20;;;;;;4340709;33;20195;-57
2021/04/16 05:06:58;;;;;;;7.00;4.17;;;2.00;99.10;;;;;;4345123;33;20216;-56
2021/04/16 05:09:38;;;;;;;6.20;4.37;;;2.10;99.10;;;;;;4345855;33;20205;-55
2021/04/16 05:12:06;;;;;;;5.10;3.73;;;2.10;99.00;;;;;;4347380;33;20181;-52
2021/04/16 05:14:36;;;;;;;7.03;5.17;;;2.20;99.10;;;;;;4347157;33;20168;-58
2021/04/16 05:17:07;;;;;;;6.63;4.27;;;2.30;98.90;;;;;;4346931;33;20168;-54
2021/04/16 05:19:34;;;;;;;7.37;3.90;;;2.20;98.90;;;;;;4341429;33;20520;-55
2021/04/16 05:22:03;;;;;;;7.07;4.40;;;2.20;98.50;;;;;;4348543;32;20627;-57
2021/04/16 05:24:32;;;;;;;7.80;4.70;;;2.20;98.60;;;;;;4350002;33;20145;-55
2021/04/16 05:26:59;;;;;;;8.10;4.80;;;2.30;98.60;;;;;;4347436;32;20160;-57
2021/04/16 05:29:26;;;;;;;8.73;4.50;;;2.30;98.70;;;;;;4348490;32;20613;-56
2021/04/16 05:31:55;;;;;;;6.67;4.13;;;2.40;98.60;;;;;;4346785;33;20148;-56
2021/04/16 05:34:21;;;;;;;7.20;4.53;;;2.50;98.60;;;;;;4344953;33;20477;-57
2021/04/16 05:36:48;;;;;;;10.97;5.40;;;2.50;98.30;;;;;;4346317;33;20256;-54
2021/04/16 05:39:15;;;;;;;9.13;5.07;;;2.60;98.40;;;;;;4346065;33;20211;-57
2021/04/16 05:41:42;;;;;;;9.27;5.10;;;2.60;98.60;;;;;;4345155;33;20217;-56
2021/04/16 05:44:09;;;;;;;9.57;5.27;;;2.70;98.60;;;;;;4344933;33;20156;-59
2021/04/16 05:46:37;;;;;;;10.33;5.13;;;3.00;98.40;;;;;;4344854;33;20351;-56
2021/04/16 05:49:04;;;;;;;10.63;4.97;;;3.50;97.80;;;;;;4344380;33;20163;-57
2021/04/16 05:51:30;;;;;;;9.00;4.70;;;4.30;96.80;;;;;;4344728;33;20211;-55
2021/04/16 05:53:57;;;;;;;11.23;5.13;;;5.20;95.10;;;;;;4345724;33;20242;-58
2021/04/16 05:56:23;;;;;;;7.33;4.80;;;6.00;93.30;;;;;;4347142;33;20177;-59
2021/04/16 05:58:51;;;;;;;11.40;5.50;;;6.10;92.10;;;;;;4346498;33;20299;-56
2021/04/16 06:01:17;;;;;;;12.43;5.73;;;5.80;92.30;;;;;;4344162;33;20191;-56
2021/04/16 06:03:46;;;;;;;9.73;6.07;;;5.40;92.60;;;;;;4345207;33;20157;-54
2021/04/16 06:06:13;;;;;;;13.17;7.40;;;5.00;93.30;;;;;;4345414;33;20187;-57
2021/04/16 06:08:39;;;;;;;12.47;7.00;;;4.90;94.10;;;;;;4345340;33;20294;-56
2021/04/16 06:11:06;;;;;;;16.70;8.00;;;5.00;94.30;;;;;;4342461;32;20149;-53
2021/04/16 06:13:32;;;;;;;15.70;7.80;;;4.90;94.50;;;;;;4346299;33;20173;-60
2021/04/16 06:16:02;;;;;;;19.37;8.37;;;4.90;94.40;;;;;;4346049;33;20483;-57
2021/04/16 06:18:28;;;;;;;16.60;8.33;;;4.90;94.60;;;;;;4346312;33;20332;-54
2021/04/16 06:20:55;;;;;;;14.23;8.07;;;4.90;94.70;;;;;;4344199;33;20203;-53
2021/04/16 06:23:21;;;;;;;15.27;8.67;;;5.10;94.80;;;;;;4345962;33;20179;-56
2021/04/16 06:25:48;;;;;;;18.23;8.93;;;5.10;94.80;;;;;;4345964;33;20234;-59
2021/04/16 06:28:14;;;;;;;21.87;9.07;;;5.30;94.70;;;;;;4345853;33;20271;-56
2021/04/16 06:30:42;;;;;;;18.47;8.57;;;5.50;94.60;;;;;;4347022;32;20454;-57
2021/04/16 06:33:18;;;;;;;18.43;8.67;;;5.60;94.60;;;;;;4347240;33;20148;-57
2021/04/16 06:35:48;;;;;;;20.20;9.10;;;5.80;94.30;;;;;;4346425;33;20195;-55
2021/04/16 06:38:22;;;;;;;16.60;8.33;;;6.00;94.20;;;;;;4345339;33;20145;-55
2021/04/16 06:40:51;;;;;;;17.67;7.87;;;6.10;93.80;;;;;;4344706;33;20194;-55
2021/04/16 06:43:22;;;;;;;15.37;7.37;;;6.30;93.60;;;;;;4337380;33;20159;-57
2021/04/16 06:45:53;;;;;;;17.63;7.07;;;6.30;93.50;;;;;;4342667;33;20518;-58
2021/04/16 06:48:20;;;;;;;18.23;7.07;;;6.30;93.60;;;;;;4341615;33;20231;-56
2021/04/16 06:50:47;;;;;;;16.70;7.83;;;6.40;93.50;;;;;;4342099;33;20194;-58
2021/04/16 06:53:18;;;;;;;14.90;7.20;;;6.50;93.40;;;;;;4342863;32;20165;-57
2021/04/16 06:55:54;;;;;;;12.77;6.83;;;6.50;93.60;;;;;;4342265;33;20276;-57
2021/04/16 06:58:25;;;;;;;16.97;6.93;;;6.60;93.60;;;;;;4338830;33;20655;-55
2021/04/16 07:01:05;;;;;;;13.70;6.27;;;6.80;93.30;;;;;;4338941;33;20167;-60
2021/04/16 07:03:43;;;;;;;15.77;6.77;;;6.90;93.40;;;;;;4341598;32;20164;-56
2021/04/16 07:06:20;;;;;;;11.53;5.67;;;7.00;93.00;;;;;;4345831;32;20152;-58
2021/04/16 07:08:55;;;;;;;11.03;4.87;;;7.20;92.90;;;;;;4342884;33;20169;-58
2021/04/16 07:11:24;;;;;;;15.27;5.80;;;7.30;92.70;;;;;;4332668;33;20148;-57
2021/04/16 07:13:51;;;;;;;14.23;5.60;;;7.40;92.60;;;;;;4332827;33;20184;-57
2021/04/16 07:16:21;;;;;;;13.70;6.33;;;7.40;92.20;;;;;;4335227;33;20153;-56
2021/04/16 07:18:52;;;;;;;17.00;6.47;;;7.50;92.40;;;;;;4345227;33;20192;-58
2021/04/16 07:21:22;;;;;;;15.43;5.47;;;7.80;92.10;;;;;;4344651;33;20482;-57
2021/04/16 07:23:51;;;;;;;11.27;5.20;;;8.00;91.80;;;;;;4337902;33;20164;-59
2021/04/16 07:26:30;;;;;;;15.37;5.83;;;8.30;91.20;;;;;;4345962;33;20658;-58
2021/04/16 07:28:57;;;;;;;9.10;4.83;;;8.30;90.60;;;;;;4345882;33;20527;-57
2021/04/16 07:31:45;;;;;;;10.37;4.97;;;8.50;90.60;;;;;;4335189;33;20155;-57
2021/04/16 07:34:30;;;;;;;14.77;4.90;;;8.50;90.30;;;;;;4343171;33;20137;-57
2021/04/16 07:37:05;;;;;;;9.43;4.53;;;8.90;89.70;;;;;;4341412;33;20165;-57
2021/04/16 07:39:34;;;;;;;10.53;4.73;;;10.20;86.10;;;;;;4342260;33;20153;-57
2021/04/16 07:42:15;;;;;;;7.27;4.10;;;13.80;76.40;;;;;;4343696;33;20168;-55
2021/04/16 07:44:56;;;;;;;9.23;4.03;;;18.50;59.30;;;;;;4341949;33;20149;-61
2021/04/16 07:47:26;;;;;;;8.27;3.33;;;23.50;45.20;;;;;;4342572;33;20153;-58
2021/04/16 07:49:56;;;;;;;9.73;3.30;;;27.00;36.20;;;;;;4346347;33;20153;-56
2021/04/16 07:52:30;;;;;;;8.93;3.77;;;28.30;35.30;;;;;;4350127;33;20145;-58
2021/04/16 07:58:21;;;;;;;8.17;3.40;;;31.20;30.90;;;;;;4313138;33;20193;-56
2021/04/16 08:00:51;;;;;;;8.13;3.87;;;32.60;29.80;;;;;;4314445;33;20179;-59
2021/04/16 08:03:20;;;;;;;8.77;3.37;;;33.20;29.10;;;;;;4301357;33;20263;-57
2021/04/16 08:05:50;;;;;;;7.60;3.50;;;34.40;28.80;;;;;;4300984;33;20193;-58
2021/04/16 08:08:26;;;;;;;6.63;3.03;;;35.90;28.00;;;;;;4313878;33;20255;-57
2021/04/16 08:11:08;;;;;;;8.67;3.50;;;36.10;27.70;;;;;;4314154;33;20618;-58
2021/04/16 08:13:36;;;;;;;7.35;3.20;;;36.80;26.90;;;;;;4307334;33;20237;-59
2021/04/16 08:16:12;;;;;;;7.18;3.00;;;37.60;27.10;;;;;;4311701;33;20162;-58
2021/04/16 08:18:40;;;;;;;7.15;3.33;;;38.80;26.50;;;;;;4300506;33;20169;-60
2021/04/16 08:21:14;;;;;;;9.68;3.28;;;38.70;25.90;;;;;;4309405;33;20165;-59
2021/04/16 08:23:48;;;;;;;6.25;2.90;;;37.40;26.20;;;;;;4308345;33;20162;-60
2021/04/16 08:26:16;;;;;;;4.57;2.67;;;37.10;26.50;;;;;;4309285;33;20259;-58
2021/04/16 08:28:50;;;;;;;7.75;3.22;;;38.10;26.00;;;;;;4312365;33;20158;-57
2021/04/16 08:31:22;;;;;;;6.15;3.35;;;37.60;26.00;;;;;;4313152;33;20172;-60
2021/04/16 08:33:54;;;;;;;5.80;2.90;;;34.80;25.70;;;;;;4314646;33;20701;-58
2021/04/16 08:36:28;;;;;;;10.50;3.87;;;37.80;26.40;;;;;;4342359;33;20236;-58
2021/04/16 08:38:58;;;;;;;7.50;3.55;;;39.10;25.70;;;;;;4343886;33;20199;-57
2021/04/16 08:41:27;;;;;;;7.43;3.37;;;39.30;25.60;;;;;;4342076;33;20177;-60
2021/04/16 08:43:56;;;;;;;9.57;3.40;;;39.00;25.20;;;;;;4343864;33;20176;-60
2021/04/16 08:46:33;;;;;;;6.77;2.87;;;33.00;25.40;;;;;;4341863;33;20134;-58
2021/04/16 08:49:08;;;;;;;5.40;2.90;;;33.30;26.40;;;;;;4346899;33;20240;-59
2021/04/16 08:51:43;;;;;;;6.10;2.83;;;32.90;25.80;;;;;;4341596;33;20183;-59
2021/04/16 08:54:19;;;;;;;4.25;2.42;;;35.20;25.80;;;;;;4344748;33;20153;-57
2021/04/16 08:56:54;;;;;;;5.07;2.90;;;36.40;25.20;;;;;;4345734;33;20152;-59
2021/04/16 08:59:26;;;;;;;3.92;2.90;;;37.90;24.80;;;;;;4347306;33;20168;-57
2021/04/16 09:01:58;;;;;;;7.22;2.97;;;37.70;24.60;;;;;;4345135;33;20581;-60
2021/04/16 09:04:47;;;;;;;3.20;2.27;;;37.40;24.20;;;;;;4342622;33;20160;-58
2021/04/16 09:07:31;;;;;;;4.80;2.90;;;35.80;24.60;;;;;;4345304;33;20168;-58
2021/04/16 09:09:59;;;;;;;6.30;2.80;;;32.70;25.90;;;;;;4346597;33;20149;-59
2021/04/16 09:12:51;;;;;;;5.57;2.93;;;27.70;28.70;;;;;;4342823;33;20288;-58
2021/04/16 09:15:38;;;;;;;3.77;2.60;;;23.20;31.00;;;;;;4284728;33;20201;-58
2021/04/16 09:18:13;;;;;;;6.07;2.70;;;19.60;33.80;;;;;;4286296;33;20397;-56
2021/04/16 09:21:10;;;;;;;3.27;2.50;;;17.60;37.30;;;;;;4285936;33;20631;-62
2021/04/16 09:24:01;;;;;;;6.47;3.00;;;16.40;38.30;;;;;;4286531;33;20158;-54
2021/04/16 09:26:56;;;;;;;3.83;2.60;;;15.30;40.90;;;;;;4288241;33;20213;-59
2021/04/16 09:29:43;;;;;;;6.13;2.90;;;14.50;44.10;;;;;;4284210;33;20150;-59
2021/04/16 09:32:46;;;;;;;3.93;2.67;;;13.70;46.70;;;;;;4285631;33;20542;-59
2021/04/16 09:35:46;;;;;;;8.30;2.10;;;13.50;46.70;;;;;;4284968;33;20354;-60
2021/04/16 09:38:31;;;;;;;3.17;2.47;;;13.50;48.50;;;;;;4288806;33;20156;-60
2021/04/16 09:41:11;;;;;;;5.17;2.73;;;13.30;49.10;;;;;;4293140;33;20503;-60
2021/04/16 09:43:39;;;;;;;3.60;2.23;;;13.20;51.10;;;;;;4288973;33;20153;-59
2021/04/16 09:46:47;;;;;;;4.47;2.13;;;13.00;50.50;;;;;;4295681;33;20300;-59
2021/04/16 09:49:32;;;;;;;5.13;2.37;;;12.20;53.10;;;;;;4285040;33;20158;-55
2021/04/16 09:52:02;;;;;;;5.33;2.40;;;12.00;53.50;;;;;;4314439;33;20141;-59
2021/04/16 09:54:40;;;;;;;5.63;2.63;;;12.30;51.10;;;;;;4337239;33;20225;-60
2021/04/16 09:57:26;;;;;;;5.67;2.97;;;11.90;52.10;;;;;;4344650;32;20167;-59
2021/04/16 09:59:54;;;;;;;6.90;3.20;;;12.10;54.60;;;;;;4342916;33;20211;-58
2021/04/16 10:02:35;;;;;;;5.43;2.70;;;12.00;53.90;;;;;;4340454;33;20191;-59
2021/04/16 10:05:27;;;;;;;4.10;2.53;;;12.00;55.60;;;;;;4332515;33;20166;-60
2021/04/16 10:07:57;;;;;;;6.13;3.10;;;12.10;54.00;;;;;;4340841;33;20151;-58
2021/04/16 10:10:32;;;;;;;3.27;2.40;;;12.40;53.70;;;;;;4342695;33;20204;-58
2021/04/16 10:13:04;;;;;;;6.80;2.70;;;12.30;53.60;;;;;;4344169;33;20319;-56
2021/04/16 10:15:36;;;;;;;4.17;2.57;;;12.20;53.60;;;;;;4344616;33;20168;-61
2021/04/16 10:18:06;;;;;;;9.27;3.13;;;11.90;54.70;;;;;;4341482;33;20185;-59
2021/04/16 10:20:39;;;;;;;4.23;2.53;;;11.90;56.80;;;;;;4345551;33;20212;-58
2021/04/16 10:23:16;;;;;;;4.73;2.70;;;12.40;56.10;;;;;;4343451;33;20175;-59
2021/04/16 12:39:48;;;;;;;5.33;1.90;;;13.50;43.20;;;;;;4273385;33;20272;-61
2021/04/16 12:42:17;;;;;;;3.80;2.10;;;13.60;43.30;;;;;;4274902;33;20193;-59
2021/04/16 12:44:47;;;;;;;3.73;1.43;;;13.50;43.10;;;;;;4273585;33;20170;-61
2021/04/16 12:47:17;;;;;;;3.13;1.87;;;13.40;44.20;;;;;;4274097;33;20566;-60
2021/04/16 12:49:44;;;;;;;6.93;2.43;;;13.60;44.30;;;;;;4272672;33;20166;-61
2021/04/16 12:52:14;;;;;;;3.00;2.27;;;13.70;44.60;;;;;;4283603;33;20158;-59
2021/04/16 12:54:48;;;;;;;4.23;2.50;;;13.40;46.80;;;;;;4313258;33;20486;-59
2021/04/16 12:57:25;;;;;;;4.37;2.40;;;13.40;48.40;;;;;;4315874;33;20200;-59
2021/04/16 12:59:55;;;;;;;5.50;3.23;;;13.40;50.00;;;;;;4321713;33;20187;-62
2021/04/16 13:02:25;;;;;;;3.63;2.33;;;13.80;50.60;;;;;;4346308;33;20204;-59
2021/04/16 13:04:58;;;;;;;5.83;2.70;;;13.80;50.80;;;;;;4347298;33;20585;-60
2021/04/16 13:07:25;;;;;;;4.63;2.70;;;13.80;50.60;;;;;;4344285;33;20206;-58
2021/04/16 13:09:52;;;;;;;5.27;2.70;;;13.40;53.00;;;;;;4347231;33;20156;-58
2021/04/16 13:12:22;;;;;;;5.90;2.37;;;13.40;50.50;;;;;;4346794;33;20213;-61
2021/04/16 13:14:51;;;;;;;6.13;2.43;;;13.60;50.10;;;;;;4347656;33;20190;-63
2021/04/16 13:17:21;;;;;;;4.60;2.40;;;13.30;50.20;;;;;;4343925;33;20149;-57
2021/04/16 13:19:54;;;;;;;4.53;2.50;;;13.20;51.10;;;;;;4345135;33;20152;-58
2021/04/16 13:22:27;;;;;;;4.17;2.37;;;13.40;50.30;;;;;;4345138;33;20260;-59
2021/04/16 13:25:05;;;;;;;7.23;2.53;;;13.30;48.90;;;;;;4346894;33;20823;-58
2021/04/16 13:27:31;;;;;;;2.77;2.43;;;13.30;48.50;;;;;;4345861;33;20172;-61
2021/04/16 13:30:00;;;;;;;7.90;2.87;;;13.30;49.10;;;;;;4342740;33;20183;-59
2021/04/16 13:32:41;;;;;;;5.17;2.60;;;13.30;50.00;;;;;;4341303;33;20195;-60
2021/04/16 13:35:11;;;;;;;4.70;2.33;;;13.20;50.60;;;;;;4342514;33;20157;-59
2021/04/16 13:37:37;;;;;;;5.53;2.63;;;13.40;51.70;;;;;;4344168;33;20319;-58
2021/04/16 13:40:09;;;;;;;4.70;2.20;;;13.60;51.30;;;;;;4342776;33;20690;-58
2021/04/16 13:42:39;;;;;;;5.67;2.63;;;13.60;50.40;;;;;;4344251;33;20228;-59
2021/04/16 13:45:13;;;;;;;5.93;2.60;;;13.50;51.00;;;;;;4343961;33;20194;-61
2021/04/16 13:47:47;;;;;;;4.07;2.33;;;12.90;52.20;;;;;;4343147;33;20301;-60
2021/04/16 13:50:16;;;;;;;4.13;2.47;;;13.10;53.00;;;;;;4344308;33;20169;-60
2021/04/16 13:52:43;;;;;;;3.90;2.00;;;13.20;52.70;;;;;;4343454;33;20158;-59
2021/04/16 13:55:12;;;;;;;6.23;2.63;;;13.30;50.60;;;;;;4342517;33;20641;-59
2021/04/16 13:57:39;;;;;;;7.43;2.50;;;13.20;50.90;;;;;;4345044;33;20715;-58
2021/04/16 14:00:12;;;;;;;3.13;2.20;;;13.10;51.80;;;;;;4345213;32;20595;-60
2021/04/16 14:02:50;;;;;;;3.93;2.40;;;13.00;52.10;;;;;;4342756;33;20246;-60
2021/04/16 14:05:21;;;;;;;2.90;2.20;;;12.90;52.60;;;;;;4344773;33;20492;-63
2021/04/16 14:07:50;;;;;;;3.13;2.07;;;13.10;52.10;;;;;;4340699;33;20167;-60
2021/04/16 14:10:22;;;;;;;3.27;2.20;;;13.30;51.40;;;;;;4342526;33;20153;-59
2021/04/16 14:12:49;;;;;;;2.77;1.67;;;13.30;51.10;;;;;;4345395;33;20226;-59
2021/04/16 14:15:21;;;;;;;5.47;2.20;;;13.20;50.90;;;;;;4343140;33;20184;-61
2021/04/16 14:18:03;;;;;;;3.10;1.80;;;13.30;50.70;;;;;;4346282;33;20144;-61
2021/04/16 14:20:34;;;;;;;3.97;2.57;;;13.40;51.20;;;;;;4341884;33;20156;-58
2021/04/16 14:23:06;;;;;;;3.57;2.10;;;13.50;49.30;;;;;;4345217;33;20153;-60
2021/04/16 14:25:35;;;;;;;5.77;2.10;;;13.40;50.50;;;;;;4339181;33;20190;-59
2021/04/16 14:28:03;;;;;;;3.80;2.17;;;13.50;51.50;;;;;;4342554;33;20582;-59
2021/04/16 14:30:38;;;;;;;6.23;2.20;;;13.40;50.30;;;;;;4344064;33;20156;-61
2021/04/16 14:33:10;;;;;;;6.83;3.00;;;13.10;51.70;;;;;;4343463;33;20216;-60
2021/04/16 14:35:36;;;;;;;4.07;2.37;;;13.20;51.30;;;;;;4342179;33;20227;-60
2021/04/16 14:38:03;;;;;;;3.13;2.17;;;13.30;50.80;;;;;;4343709;33;20187;-60
2021/04/16 14:40:30;;;;;;;5.13;2.27;;;13.00;51.20;;;;;;4344226;33;20168;-58
2021/04/16 14:43:00;;;;;;;4.97;2.13;;;12.30;52.80;;;;;;4344589;32;20160;-60
2021/04/16 14:45:29;;;;;;;3.87;2.40;;;12.50;53.10;;;;;;4341940;33;20215;-61
2021/04/16 14:48:01;;;;;;;5.77;2.50;;;12.30;53.50;;;;;;4344715;33;20176;-61
2021/04/16 14:50:32;;;;;;;4.07;2.43;;;12.50;53.90;;;;;;4332241;33;20199;-59
2021/04/16 14:53:06;;;;;;;3.30;2.20;;;12.60;52.90;;;;;;4333963;32;20171;-57
2021/04/16 14:55:38;;;;;;;6.37;2.40;;;12.60;53.00;;;;;;4331064;33;20162;-61
2021/04/16 14:58:12;;;;;;;5.07;3.13;;;12.60;52.70;;;;;;4341160;33;20151;-60
2021/04/16 15:00:38;;;;;;;4.53;2.07;;;12.60;53.10;;;;;;4349805;33;20164;-60
2021/04/16 15:03:05;;;;;;;4.07;1.87;;;12.60;53.30;;;;;;4337364;32;20202;-60
2021/04/16 15:05:33;;;;;;;4.80;2.10;;;12.60;53.80;;;;;;4333180;33;20233;-59
2021/04/16 15:08:21;;;;;;;4.27;2.00;;;12.60;53.50;;;;;;4331972;33;20142;-59
2021/04/16 15:10:55;;;;;;;5.47;2.50;;;12.10;54.60;;;;;;4343851;33;20176;-60
2021/04/16 15:13:24;;;;;;;4.17;2.23;;;12.20;55.10;;;;;;4336793;33;20263;-60
2021/04/16 15:15:57;;;;;;;3.57;2.03;;;12.10;56.10;;;;;;4340014;33;20612;-61
2021/04/16 15:18:23;;;;;;;3.03;1.97;;;12.20;56.40;;;;;;4344179;33;20179;-62
2021/04/16 15:20:51;;;;;;;7.37;2.57;;;12.30;55.60;;;;;;4345077;33;20204;-58
2021/04/16 15:23:17;;;;;;;5.10;2.00;;;12.30;55.80;;;;;;4343364;33;20541;-59
2021/04/16 15:25:48;;;;;;;7.73;2.27;;;12.30;56.50;;;;;;4344013;33;20207;-59